createdAt,value
2023-04-02T00:00:17.341Z,99.90
2023-04-02T00:03:01.302Z,99.90
2023-04-02T00:05:56.017Z,99.90
2023-04-02T00:08:27.565Z,99.90
2023-04-02T00:10:59.754Z,99.90
2023-04-02T00:13:36.413Z,99.90
2023-04-02T00:16:07.704Z,99.90
2023-04-02T00:18:41.221Z,99.90
2023-04-02T00:21:14.729Z,99.90
2023-04-02T00:23:44.572Z,99.90
2023-04-02T00:26:33.156Z,99.90
2023-04-02T00:29:01.996Z,99.90
2023-04-02T00:31:32.084Z,99.90
2023-04-02T00:34:02.346Z,99.90
2023-04-02T00:36:33.982Z,99.90
2023-04-02T00:39:05.813Z,99.90
2023-04-02T00:41:38.949Z,99.90
2023-04-02T00:44:07.275Z,99.90
2023-04-02T00:46:46.950Z,99.90
2023-04-02T00:49:22.488Z,99.90
2023-04-02T00:51:53.833Z,99.90
2023-04-02T00:54:25.704Z,99.90
2023-04-02T00:56:58.208Z,99.90
2023-04-02T00:59:29.169Z,99.90
2023-04-02T01:02:02.613Z,99.90
2023-04-02T01:04:34.536Z,99.90
2023-04-02T01:07:06.534Z,99.90
2023-04-02T01:09:55.800Z,99.90
2023-04-02T01:12:43.852Z,99.90
2023-04-02T01:15:18.837Z,99.90
2023-04-02T01:18:03.178Z,99.90
2023-04-02T01:21:23.227Z,99.90
2023-04-02T01:24:05.332Z,99.90
2023-04-02T01:26:46.986Z,99.90
2023-04-02T01:29:19.814Z,99.90
2023-04-02T01:31:50.176Z,99.90
2023-04-02T01:34:21.927Z,99.90
2023-04-02T01:37:01.820Z,99.90
2023-04-02T01:39:42.058Z,99.90
2023-04-02T01:42:17.416Z,99.90
2023-04-02T01:44:50.016Z,99.90
2023-04-02T01:47:20.822Z,99.90
2023-04-02T01:49:48.957Z,99.90
2023-04-02T01:52:20.510Z,99.90
2023-04-02T01:54:49.316Z,99.90
2023-04-02T01:57:17.799Z,99.90
2023-04-02T01:59:47.586Z,99.90
2023-04-02T02:02:16.056Z,99.90
2023-04-02T02:04:45.227Z,99.90
2023-04-02T02:07:16.253Z,99.90
2023-04-02T02:09:45.403Z,99.90
2023-04-02T02:12:15.579Z,99.90
2023-04-02T02:14:49.847Z,99.90
2023-04-02T02:17:24.259Z,99.90
2023-04-02T02:19:55.122Z,99.90
2023-04-02T02:22:32.261Z,99.90
2023-04-02T02:25:03.075Z,99.90
2023-04-02T02:27:47.824Z,99.90
2023-04-02T02:30:21.256Z,99.90
2023-04-02T02:32:57.043Z,99.90
2023-04-02T02:35:30.091Z,99.90
2023-04-02T02:38:04.224Z,99.90
2023-04-02T02:40:39.936Z,99.90
2023-04-02T02:43:13.503Z,99.90
2023-04-02T02:45:45.389Z,99.90
2023-04-02T02:48:18.470Z,99.90
2023-04-02T02:50:46.742Z,99.90
2023-04-02T02:53:20.574Z,99.90
2023-04-02T02:55:51.042Z,99.90
2023-04-02T02:58:23.637Z,99.90
2023-04-02T03:00:53.110Z,99.90
2023-04-02T03:03:24.128Z,99.90
2023-04-02T03:05:56.474Z,99.90
2023-04-02T03:08:31.326Z,99.90
2023-04-02T03:11:06.166Z,99.90
2023-04-02T03:13:36.111Z,99.90
2023-04-02T03:16:11.966Z,99.90
2023-04-02T03:18:45.073Z,99.90
2023-04-02T03:21:23.673Z,99.90
2023-04-02T03:23:56.533Z,99.90
2023-04-02T03:26:28.281Z,99.90
2023-04-02T03:29:00.888Z,99.90
2023-04-02T03:31:35.741Z,99.90
2023-04-02T03:34:09.652Z,99.90
2023-04-02T03:36:46.726Z,99.90
2023-04-02T03:39:21.505Z,99.90
2023-04-02T03:41:53.809Z,99.90
2023-04-02T03:44:26.741Z,99.90
2023-04-02T03:46:59.363Z,99.90
2023-04-02T03:49:32.645Z,99.90
2023-04-02T03:52:05.527Z,99.90
2023-04-02T03:54:34.325Z,99.90
2023-04-02T03:57:02.979Z,99.90
2023-04-02T03:59:39.279Z,99.90
2023-04-02T04:02:17.918Z,99.90
2023-04-02T04:04:47.947Z,99.90
2023-04-02T04:07:23.884Z,99.90
2023-04-02T04:09:54.187Z,99.90
2023-04-02T04:12:34.130Z,99.90
2023-04-02T04:15:08.392Z,99.90
2023-04-02T04:17:51.658Z,99.90
2023-04-02T04:20:24.624Z,99.90
2023-04-02T04:22:56.112Z,99.90
2023-04-02T04:25:29.525Z,99.90
2023-04-02T04:28:07.813Z,99.90
2023-04-02T04:30:47.098Z,99.90
2023-04-02T04:33:23.165Z,99.90
2023-04-02T04:35:56.661Z,99.90
2023-04-02T04:38:32.857Z,99.90
2023-04-02T04:41:06.607Z,99.90
2023-04-02T04:43:45.691Z,99.90
2023-04-02T04:46:17.666Z,99.90
2023-04-02T04:48:54.176Z,99.90
2023-04-02T04:51:26.760Z,99.90
2023-04-02T04:53:56.385Z,99.90
2023-04-02T04:56:27.680Z,99.90
2023-04-02T04:59:00.252Z,99.90
2023-04-02T05:01:32.706Z,99.90
2023-04-02T05:04:07.321Z,99.90
2023-04-02T05:06:40.219Z,99.90
2023-04-02T05:09:16.754Z,99.90
2023-04-02T05:11:48.570Z,99.90
2023-04-02T05:14:24.042Z,99.90
2023-04-02T05:16:58.878Z,99.90
2023-04-02T05:19:33.977Z,99.90
2023-04-02T05:22:13.432Z,99.90
2023-04-02T05:24:52.453Z,99.90
2023-04-02T05:27:28.821Z,99.90
2023-04-02T05:30:04.356Z,99.90
2023-04-02T05:32:35.695Z,99.90
2023-04-02T05:35:06.830Z,99.90
2023-04-02T05:37:35.649Z,99.90
2023-04-02T05:40:14.853Z,99.90
2023-04-02T05:42:46.716Z,99.90
2023-04-02T05:45:24.250Z,99.90
2023-04-02T05:47:57.387Z,99.90
2023-04-02T05:50:31.712Z,99.90
2023-04-02T05:53:05.359Z,99.90
2023-04-02T05:55:42.780Z,99.90
2023-04-02T05:58:34.432Z,99.90
2023-04-02T06:01:25.306Z,99.90
2023-04-02T06:04:01.068Z,99.90
2023-04-02T06:06:47.144Z,99.90
2023-04-02T06:09:20.131Z,99.90
2023-04-02T06:11:53.002Z,99.90
2023-04-02T06:14:21.164Z,99.90
2023-04-02T06:16:49.749Z,99.90
2023-04-02T06:19:23.210Z,99.90
2023-04-02T06:21:59.037Z,99.90
2023-04-02T06:24:28.942Z,99.90
2023-04-02T06:27:00.942Z,99.90
2023-04-02T06:29:39.656Z,99.90
2023-04-02T06:32:10.011Z,99.90
2023-04-02T06:34:40.134Z,99.90
2023-04-02T06:37:20.953Z,99.90
2023-04-02T06:39:49.487Z,99.90
2023-04-02T06:42:22.262Z,99.90
2023-04-02T06:44:51.252Z,99.90
2023-04-02T06:47:27.974Z,99.90
2023-04-02T06:50:01.815Z,99.90
2023-04-02T06:52:36.003Z,99.90
2023-04-02T06:55:18.384Z,99.90
2023-04-02T06:57:46.507Z,99.90
2023-04-02T07:00:26.354Z,99.90
2023-04-02T07:02:56.448Z,99.90
2023-04-02T07:05:24.832Z,99.90
2023-04-02T07:07:54.198Z,99.90
2023-04-02T07:10:22.430Z,99.90
2023-04-02T07:12:50.452Z,99.90
2023-04-02T07:15:19.452Z,99.90
2023-04-02T07:17:48.143Z,99.90
2023-04-02T07:20:27.905Z,99.90
2023-04-02T07:22:57.742Z,99.90
2023-04-02T07:25:27.590Z,99.90
2023-04-02T07:27:55.865Z,99.90
2023-04-02T07:30:24.123Z,99.90
2023-04-02T07:32:52.210Z,99.90
2023-04-02T07:35:20.363Z,99.90
2023-04-02T07:37:48.432Z,99.90
2023-04-02T07:40:21.911Z,99.90
2023-04-02T07:42:50.302Z,99.90
2023-04-02T07:45:18.333Z,99.90
2023-04-02T07:47:46.360Z,99.90
2023-04-02T07:50:14.725Z,99.90
2023-04-02T07:52:43.463Z,99.90
2023-04-02T07:55:12.640Z,99.90
2023-04-02T07:57:46.367Z,99.90
2023-04-02T08:00:15.972Z,99.90
2023-04-02T08:02:44.154Z,99.90
2023-04-02T08:05:12.498Z,99.90
2023-04-02T08:07:41.715Z,99.90
2023-04-02T08:10:12.250Z,99.90
2023-04-02T08:12:41.770Z,99.90
2023-04-02T08:15:11.149Z,99.90
2023-04-02T08:17:39.584Z,99.90
2023-04-02T08:20:10.515Z,99.90
2023-04-02T08:22:38.769Z,99.90
2023-04-02T08:25:09.410Z,99.90
2023-04-02T08:27:37.374Z,99.90
2023-04-02T08:30:09.270Z,99.90
2023-04-02T08:32:37.290Z,99.90
2023-04-02T08:35:05.749Z,99.90
2023-04-02T08:37:33.701Z,99.90
2023-04-02T08:40:01.687Z,99.90
2023-04-02T08:42:36.160Z,99.90
2023-04-02T08:45:37.919Z,99.90
2023-04-02T08:48:06.711Z,99.90
2023-04-02T08:50:36.532Z,99.90
2023-04-02T08:53:07.568Z,99.90
2023-04-02T08:55:42.793Z,99.90
2023-04-02T08:58:21.886Z,99.90
2023-04-02T09:00:54.951Z,99.90
2023-04-02T09:03:29.833Z,99.90
2023-04-02T09:06:00.685Z,99.90
2023-04-02T09:08:30.986Z,99.90
2023-04-02T09:11:05.802Z,99.90
2023-04-02T09:13:38.904Z,99.90
2023-04-02T09:16:12.002Z,99.90
2023-04-02T09:18:41.144Z,99.90
2023-04-02T09:21:28.374Z,99.90
2023-04-02T09:23:57.836Z,99.90
2023-04-02T09:26:28.689Z,99.90
2023-04-02T09:29:03.397Z,99.90
2023-04-02T09:31:38.171Z,99.90
2023-04-02T09:34:28.399Z,99.90
2023-04-02T09:36:56.967Z,99.90
2023-04-02T09:39:26.944Z,99.90
2023-04-02T09:42:04.865Z,99.90
2023-04-02T09:44:34.511Z,99.90
2023-04-02T09:47:06.285Z,99.90
2023-04-02T09:49:36.742Z,99.90
2023-04-02T09:52:27.878Z,99.90
2023-04-02T09:55:19.916Z,99.90
2023-04-02T09:57:49.342Z,99.90
2023-04-02T10:00:31.692Z,99.90
2023-04-02T10:03:05.190Z,99.90
2023-04-02T10:08:18.489Z,99.90
2023-04-02T10:10:50.787Z,99.90
2023-04-02T10:13:25.542Z,99.90
2023-04-02T10:15:58.570Z,99.90
2023-04-02T10:18:40.457Z,99.90
2023-04-02T10:21:11.138Z,99.90
2023-04-02T10:23:39.834Z,99.90
2023-04-02T10:26:25.025Z,99.90
2023-04-02T10:29:10.777Z,99.90
2023-04-02T10:31:47.853Z,99.90
2023-04-02T10:34:24.591Z,99.90
2023-04-02T10:36:55.022Z,99.90
2023-04-02T10:39:28.213Z,99.90
2023-04-02T10:42:05.056Z,99.90
2023-04-02T10:44:45.665Z,99.90
2023-04-02T10:47:32.573Z,99.90
2023-04-02T10:50:14.289Z,99.90
2023-04-02T10:52:50.231Z,99.90
2023-04-02T10:55:22.686Z,99.90
2023-04-02T10:57:53.300Z,99.90
2023-04-02T11:00:26.240Z,99.90
2023-04-02T11:02:59.558Z,99.90
2023-04-02T11:05:37.343Z,99.90
2023-04-02T11:08:08.516Z,99.90
2023-04-02T11:10:41.813Z,99.90
2023-04-02T11:13:19.550Z,99.90
2023-04-02T11:15:47.568Z,99.90
2023-04-02T11:18:28.982Z,99.90
2023-04-02T11:21:01.108Z,99.90
2023-04-02T11:23:36.179Z,99.90
2023-04-02T11:26:38.503Z,99.90
2023-04-02T11:29:14.433Z,99.90
2023-04-02T11:31:43.741Z,99.90
2023-04-02T11:34:15.445Z,99.90
2023-04-02T11:37:05.380Z,99.90
2023-04-02T11:39:57.389Z,99.90
2023-04-02T11:42:28.411Z,99.90
2023-04-02T11:44:57.791Z,99.90
2023-04-02T11:47:26.958Z,99.90
2023-04-02T11:50:04.361Z,99.90
2023-04-02T11:52:53.904Z,99.90
2023-04-02T11:55:31.305Z,99.90
2023-04-02T11:58:26.762Z,99.90
2023-04-02T12:01:36.368Z,99.90
2023-04-02T12:04:40.816Z,99.90
2023-04-02T12:07:36.631Z,99.90
2023-04-02T12:10:16.874Z,99.90
2023-04-02T12:12:45.483Z,99.90
2023-04-02T12:15:44.630Z,99.90
2023-04-02T12:18:22.504Z,99.90
2023-04-02T12:20:52.596Z,99.90
2023-04-02T12:23:23.011Z,99.90
2023-04-02T12:26:00.322Z,99.90
2023-04-02T12:28:30.060Z,99.90
2023-04-02T12:31:16.800Z,99.90
2023-04-02T12:33:45.090Z,99.90
2023-04-02T12:36:21.482Z,99.90
2023-04-02T12:38:51.899Z,99.90
2023-04-02T12:41:25.168Z,99.90
2023-04-02T12:44:00.356Z,99.90
2023-04-02T12:46:29.458Z,99.90
2023-04-02T12:49:03.501Z,99.90
2023-04-02T12:51:31.516Z,99.90
2023-04-02T12:53:59.678Z,99.90
2023-04-02T12:56:29.081Z,99.90
2023-04-02T12:58:58.377Z,99.90
2023-04-02T13:01:28.572Z,99.90
2023-04-02T13:04:04.665Z,99.90
2023-04-02T13:06:33.944Z,99.90
2023-04-02T13:09:03.802Z,99.90
2023-04-02T13:11:41.281Z,99.90
2023-04-02T13:14:18.505Z,99.90
2023-04-02T13:16:46.680Z,99.90
2023-04-02T13:19:35.965Z,99.90
2023-04-02T13:22:05.500Z,99.90
2023-04-02T13:24:34.480Z,99.90
2023-04-02T13:27:04.468Z,99.90
2023-04-02T13:29:34.037Z,99.90
2023-04-02T13:32:04.069Z,99.90
2023-04-02T13:34:32.262Z,99.90
2023-04-02T13:37:00.409Z,99.90
2023-04-02T13:39:30.262Z,99.90
2023-04-02T13:41:59.879Z,99.90
2023-04-02T13:44:31.284Z,99.90
2023-04-02T13:47:01.892Z,99.90
2023-04-02T13:49:30.612Z,99.90
2023-04-02T13:52:03.072Z,99.90
2023-04-02T13:54:35.233Z,99.90
2023-04-02T13:57:03.546Z,99.90
2023-04-02T13:59:33.075Z,99.90
2023-04-02T14:02:07.655Z,99.90
2023-04-02T14:04:40.074Z,99.90
2023-04-02T14:07:37.706Z,99.90
2023-04-02T14:10:18.989Z,99.90
2023-04-02T14:13:00.052Z,99.90
2023-04-02T14:15:40.441Z,99.90
2023-04-02T14:18:23.780Z,99.90
2023-04-02T14:21:01.339Z,99.90
2023-04-02T14:23:42.951Z,99.90
2023-04-02T14:26:18.832Z,99.90
2023-04-02T14:28:57.523Z,99.90
2023-04-02T14:31:31.975Z,99.90
2023-04-02T14:34:07.799Z,99.90
2023-04-02T14:36:47.550Z,99.90
2023-04-02T14:39:22.602Z,99.30
2023-04-02T14:41:56.384Z,97.50
2023-04-02T14:44:27.434Z,96.40
2023-04-02T14:47:03.856Z,95.90
2023-04-02T14:49:39.561Z,95.70
2023-04-02T14:52:14.457Z,94.90
2023-04-02T14:54:51.958Z,94.60
2023-04-02T14:57:23.905Z,94.10
2023-04-02T15:00:01.738Z,92.40
2023-04-02T15:02:40.221Z,92.00
2023-04-02T15:05:16.462Z,90.80
2023-04-02T15:07:50.958Z,90.50
2023-04-02T15:10:27.340Z,90.20
2023-04-02T15:12:56.986Z,90.00
2023-04-02T15:15:40.372Z,89.30
2023-04-02T15:18:14.621Z,88.40
2023-04-02T15:20:52.984Z,87.70
2023-04-02T15:23:30.774Z,86.90
2023-04-02T15:26:08.340Z,86.30
2023-04-02T15:28:42.259Z,85.80
2023-04-02T15:31:15.114Z,84.40
2023-04-02T15:33:46.429Z,84.10
2023-04-02T15:36:53.687Z,83.40
2023-04-02T15:39:46.166Z,83.00
2023-04-02T15:42:22.746Z,82.60
2023-04-02T15:45:22.398Z,82.70
2023-04-02T15:48:15.394Z,82.10
2023-04-02T15:51:01.287Z,83.00
2023-04-02T15:53:40.536Z,82.10
2023-04-02T15:56:23.477Z,82.10
2023-04-02T15:59:05.120Z,83.00
2023-04-02T16:01:41.929Z,82.50
2023-04-02T16:04:46.328Z,82.20
2023-04-02T16:07:38.736Z,82.20
2023-04-02T16:10:12.777Z,82.40
2023-04-02T16:12:42.652Z,83.00
2023-04-02T16:15:17.832Z,84.10
2023-04-02T16:17:50.136Z,83.70
2023-04-02T16:20:22.156Z,84.10
2023-04-02T16:23:00.486Z,84.30
2023-04-02T16:25:34.817Z,84.50
2023-04-02T16:28:12.961Z,84.80
2023-04-02T16:30:47.918Z,84.80
2023-04-02T16:33:31.627Z,84.90
2023-04-02T16:36:11.733Z,85.20
2023-04-02T16:38:59.162Z,85.30
2023-04-02T16:41:50.845Z,85.20
2023-04-02T16:44:27.959Z,84.90
2023-04-02T16:47:05.160Z,85.00
2023-04-02T16:49:38.855Z,84.90
2023-04-02T16:52:29.609Z,84.80
2023-04-02T16:55:11.888Z,84.70
2023-04-02T16:57:50.067Z,84.80
2023-04-02T17:00:23.767Z,84.50
2023-04-02T17:03:02.201Z,84.50
2023-04-02T17:05:36.059Z,84.60
2023-04-02T17:08:16.175Z,84.90
2023-04-02T17:10:52.635Z,85.20
2023-04-02T17:13:27.497Z,85.40
2023-04-02T17:16:03.923Z,85.70
2023-04-02T17:18:33.908Z,86.00
2023-04-02T17:21:06.032Z,86.40
2023-04-02T17:23:55.379Z,86.50
2023-04-02T17:26:29.002Z,86.60
2023-04-02T17:28:59.680Z,86.80
2023-04-02T17:31:34.069Z,87.00
2023-04-02T17:34:10.914Z,87.10
2023-04-02T17:36:46.966Z,87.20
2023-04-02T17:39:21.315Z,87.30
2023-04-02T17:41:57.304Z,87.40
2023-04-02T17:44:43.617Z,87.40
2023-04-02T17:47:19.002Z,87.50
2023-04-02T17:49:57.895Z,87.60
2023-04-02T17:52:33.456Z,87.70
2023-04-02T17:55:12.388Z,87.70
2023-04-02T17:57:55.213Z,87.90
2023-04-02T18:00:51.570Z,88.00
2023-04-02T18:03:33.026Z,88.20
2023-04-02T18:06:07.014Z,88.40
2023-04-02T18:08:47.077Z,88.50
2023-04-02T18:11:21.838Z,88.70
2023-04-02T18:13:58.223Z,88.80
2023-04-02T18:16:39.838Z,88.90
2023-04-02T18:19:17.553Z,89.10
2023-04-02T18:21:55.513Z,89.20
2023-04-02T18:24:42.649Z,89.50
2023-04-02T18:27:23.798Z,89.70
2023-04-02T18:30:00.636Z,89.90
2023-04-02T18:32:53.674Z,90.00
2023-04-02T18:35:27.538Z,90.10
2023-04-02T18:38:12.620Z,90.20
2023-04-02T18:40:47.174Z,90.40
2023-04-02T18:43:29.531Z,90.50
2023-04-02T18:46:05.467Z,90.60
2023-04-02T18:48:43.212Z,90.70
2023-04-02T18:51:17.977Z,90.90
2023-04-02T18:53:47.721Z,91.00
2023-04-02T18:56:19.767Z,91.10
2023-04-02T18:58:57.025Z,91.20
2023-04-02T19:01:31.800Z,91.40
2023-04-02T19:04:05.110Z,91.50
2023-04-02T19:06:38.937Z,91.70
2023-04-02T19:09:15.148Z,91.80
2023-04-02T19:11:43.425Z,91.90
2023-04-02T19:14:13.782Z,92.10
2023-04-02T19:17:11.450Z,92.20
2023-04-02T19:19:44.176Z,92.40
2023-04-02T19:22:26.319Z,92.50
2023-04-02T19:25:17.632Z,92.60
2023-04-02T19:28:02.839Z,92.80
2023-04-02T19:30:44.140Z,92.90
2023-04-02T19:33:25.209Z,93.10
2023-04-02T19:35:58.780Z,93.30
2023-04-02T19:38:47.639Z,93.40
2023-04-02T19:41:26.248Z,93.60
2023-04-02T19:43:55.024Z,93.70
2023-04-02T19:46:23.859Z,93.90
2023-04-02T19:48:59.753Z,94.10
2023-04-02T19:51:27.727Z,94.40
2023-04-02T19:53:55.758Z,94.50
2023-04-02T19:56:23.992Z,94.70
2023-04-02T19:58:54.610Z,94.90
2023-04-02T20:01:23.350Z,95.50
2023-04-02T20:03:51.376Z,95.30
2023-04-02T20:06:21.267Z,95.50
2023-04-02T20:08:49.286Z,95.60
2023-04-02T20:11:17.438Z,95.80
2023-04-02T20:13:45.681Z,96.00
2023-04-02T20:16:14.484Z,96.10
2023-04-02T20:18:43.033Z,96.30
2023-04-02T20:21:11.616Z,96.50
2023-04-02T20:23:41.178Z,96.70
2023-04-02T20:26:10.267Z,96.90
2023-04-02T20:28:38.267Z,97.10
2023-04-02T20:31:09.090Z,97.20
2023-04-02T20:33:37.288Z,97.30
2023-04-02T20:36:07.869Z,97.50
2023-04-02T20:38:36.208Z,97.70
2023-04-02T20:41:07.725Z,97.90
2023-04-02T20:43:36.350Z,98.00
2023-04-02T20:46:08.331Z,98.10
2023-04-02T20:48:38.132Z,98.30
2023-04-02T20:51:08.494Z,98.50
2023-04-02T20:53:38.320Z,98.60
2023-04-02T20:56:10.162Z,98.80
2023-04-02T20:58:39.300Z,99.00
2023-04-02T21:01:12.820Z,99.10
2023-04-02T21:03:40.878Z,99.30
2023-04-02T21:06:14.226Z,99.40
2023-04-02T21:08:42.269Z,99.60
2023-04-02T21:11:11.762Z,99.70
2023-04-02T21:13:42.429Z,99.80
2023-04-02T21:16:16.039Z,99.90
2023-04-02T21:18:44.269Z,99.90
2023-04-02T21:21:14.330Z,99.90
2023-04-02T21:23:43.885Z,99.90
2023-04-02T21:26:15.023Z,99.90
2023-04-02T21:28:43.808Z,99.90
2023-04-02T21:31:13.671Z,99.90
2023-04-02T21:33:43.954Z,99.90
2023-04-02T21:36:13.770Z,99.90
2023-04-02T21:38:44.050Z,99.90
2023-04-02T21:41:15.411Z,99.90
2023-04-02T21:43:43.776Z,99.90
2023-04-02T21:46:12.036Z,99.90
2023-04-02T21:48:40.707Z,99.90
2023-04-02T21:51:10.526Z,99.90
2023-04-02T21:53:38.769Z,99.90
2023-04-02T21:56:08.902Z,99.90
2023-04-02T21:58:38.210Z,99.90
2023-04-02T22:01:11.200Z,99.90
2023-04-02T22:03:42.156Z,99.90
2023-04-02T22:06:12.217Z,99.90
2023-04-02T22:08:41.884Z,99.90
2023-04-02T22:11:12.270Z,99.90
2023-04-02T22:13:42.660Z,99.90
2023-04-02T22:16:13.905Z,99.90
2023-04-02T22:18:42.362Z,99.90
2023-04-02T22:21:11.490Z,99.90
2023-04-02T22:23:40.050Z,99.90
2023-04-02T22:26:09.381Z,99.90
2023-04-02T22:28:37.691Z,99.90
2023-04-02T22:31:09.793Z,99.90
2023-04-02T22:33:37.784Z,99.90
2023-04-02T22:36:06.515Z,99.90
2023-04-02T22:38:35.095Z,99.90
2023-04-02T22:41:07.998Z,99.90
2023-04-02T22:43:36.526Z,99.90
2023-04-02T22:46:07.053Z,99.90
2023-04-02T22:48:35.966Z,99.90
2023-04-02T22:51:04.239Z,99.90
2023-04-02T22:53:32.361Z,99.90
2023-04-02T22:56:04.180Z,99.90
2023-04-02T22:58:32.096Z,99.90
2023-04-02T23:01:06.542Z,99.90
2023-04-02T23:03:34.541Z,99.90
2023-04-02T23:06:04.380Z,99.90
2023-04-02T23:08:32.715Z,99.90
2023-04-02T23:11:05.150Z,99.90
2023-04-02T23:13:33.824Z,99.90
2023-04-02T23:16:02.810Z,99.90
2023-04-02T23:18:33.640Z,99.90
2023-04-02T23:21:01.839Z,99.90
2023-04-02T23:23:30.543Z,99.90
2023-04-02T23:26:09.063Z,99.90
2023-04-02T23:28:38.668Z,99.90
2023-04-02T23:31:09.708Z,99.90
2023-04-02T23:33:39.076Z,99.90
2023-04-02T23:36:10.590Z,99.90
2023-04-02T23:38:38.600Z,99.90
2023-04-02T23:41:06.613Z,99.90
2023-04-02T23:43:34.663Z,99.90
2023-04-02T23:46:02.764Z,99.90
2023-04-02T23:48:30.649Z,99.90
2023-04-02T23:50:59.954Z,99.90
2023-04-02T23:53:28.034Z,99.90
2023-04-02T23:55:56.170Z,99.90
2023-04-02T23:58:24.237Z,99.90
